Manilla, IN (46150)

6:08 PM EDT on July 02, 2015 (GMT -0400)
Mike | | Change Station
CLOSE
Current Station
Personal Weather Station
Location: Shelbyville, IN
Elevation: 774 ft
Nearby Weather Stations

Elev 774 ft 39.55 °N, 85.78 °W | Updated 3 minutes ago

Mostly Cloudy
Mostly Cloudy
81.0 °F
Feels Like 85 °F
N
1.1
Wind Variable Wind from West

Today
High -- | Low -- °F
--% Chance of Precip.
Yesterday
High -- | Low -- °F
Precip. -- in
6:19 AM 9:13 PM
Full, 99% visible
Pressure 29.85 in
Visibility 10.0 miles
Clouds Scattered Clouds 3300 ft
Mostly Cloudy 4600 ft
Mostly Cloudy 6000 ft
Heat Index 85 °F
Dew Point 70 °F
Humidity 70%
Rainfall 0.24 in
Snow Depth Not available.
UV 2 out of 12
Pollen .50 out of 12
Air Quality Not available.
Flu Activity Not available.
METAR KGEZ 022153Z AUTO 07010KT 10SM SCT033 BKN046 BKN060 26/19 A2987 RMK AO2 SLP107 T02610189

More Conditions Fewer Conditions

Pressure 29.85 in
Visibility 10.0 miles
Clouds Scattered Clouds 3300 ft
Mostly Cloudy 4600 ft
Mostly Cloudy 6000 ft
Heat Index 85 °F
Dew Point 70 °F
Humidity 70%
Rainfall 0.24 in
Snow Depth Not available.
UV 2 out of 12
Pollen .50 out of 12
Air Quality Not available.
Flu Activity Not available.
METAR KGEZ 022153Z AUTO 07010KT 10SM SCT033 BKN046 BKN060 26/19 A2987 RMK AO2 SLP107 T02610189

More Conditions Fewer Conditions

10-Day Weather Forecast

×

Almanac

Astronomy

Jul. 02, 2015 Rise Set
Actual Time
Civil Twilight
Nautical Twilight
Astronomical Twilight
Moon
Length of Visible Light
Length of Day
Tomorrow will be .
, % of the Moon is Illuminated

Today's Extremes

State Highs State Lows

Community

WunderPhotos

Upload Photos

1,834,554 photos uploaded!

WunderBlogs® & News

Nearby

Air Quality

  Air Quality AQ Index Pollutant
Not available.

Snow Depth

Station Depth Elevation

Earthquake Activity

City Distance Mag. Time & Date
Minimum magnitude displayed is 2.5.

Coastal Water Temperatures

Place Temperature

Stations

Nearby Weather Stations

Station Location Temp. Windchill Dew Point Humidity Wind Precip. Elev Updated Type